sensor_id;sensor_type;location;lat;lon;timestamp;temperature;humidity
10419;DHT22;5256;48.728;9.140;2022-12-29T00:02:15;6.60;99.90
10419;DHT22;5256;48.728;9.140;2022-12-29T00:04:41;6.70;99.90
10419;DHT22;5256;48.728;9.140;2022-12-29T00:07:07;6.70;99.90
10419;DHT22;5256;48.728;9.140;2022-12-29T00:09:34;6.70;99.90
10419;DHT22;5256;48.728;9.140;2022-12-29T00:12:00;6.80;99.90
10419;DHT22;5256;48.728;9.140;2022-12-29T00:14:26;6.90;99.90
10419;DHT22;5256;48.728;9.140;2022-12-29T00:17:11;6.90;99.90
10419;DHT22;5256;48.728;9.140;2022-12-29T00:19:36;6.90;99.90
10419;DHT22;5256;48.728;9.140;2022-12-29T00:22:21;7.00;99.90
10419;DHT22;5256;48.728;9.140;2022-12-29T00:25:07;7.00;99.90
10419;DHT22;5256;48.728;9.140;2022-12-29T00:27:52;7.00;99.90
10419;DHT22;5256;48.728;9.140;2022-12-29T00:30:36;7.00;99.90
10419;DHT22;5256;48.728;9.140;2022-12-29T00:33:28;7.00;99.90
10419;DHT22;5256;48.728;9.140;2022-12-29T00:38:41;7.00;99.90
10419;DHT22;5256;48.728;9.140;2022-12-29T00:41:27;7.10;99.90
10419;DHT22;5256;48.728;9.140;2022-12-29T00:44:12;7.10;99.90
10419;DHT22;5256;48.728;9.140;2022-12-29T00:46:40;7.10;99.90
10419;DHT22;5256;48.728;9.140;2022-12-29T00:49:07;7.10;99.90
10419;DHT22;5256;48.728;9.140;2022-12-29T00:51:52;7.10;99.90
10419;DHT22;5256;48.728;9.140;2022-12-29T00:54:18;7.20;99.90
10419;DHT22;5256;48.728;9.140;2022-12-29T00:56:49;7.20;99.90
10419;DHT22;5256;48.728;9.140;2022-12-29T00:59:15;7.20;99.90
10419;DHT22;5256;48.728;9.140;2022-12-29T01:01:41;7.20;99.90
10419;DHT22;5256;48.728;9.140;2022-12-29T01:04:07;7.20;99.90
10419;DHT22;5256;48.728;9.140;2022-12-29T01:06:35;7.10;99.90
10419;DHT22;5256;48.728;9.140;2022-12-29T01:09:02;7.00;99.90
10419;DHT22;5256;48.728;9.140;2022-12-29T01:11:46;7.00;99.90
10419;DHT22;5256;48.728;9.140;2022-12-29T01:14:11;6.90;99.90
10419;DHT22;5256;48.728;9.140;2022-12-29T01:16:37;6.90;99.90
10419;DHT22;5256;48.728;9.140;2022-12-29T01:19:03;6.90;99.90
10419;DHT22;5256;48.728;9.140;2022-12-29T01:21:29;6.90;99.90
10419;DHT22;5256;48.728;9.140;2022-12-29T01:23:55;6.80;99.90
10419;DHT22;5256;48.728;9.140;2022-12-29T01:26:21;6.90;99.90
10419;DHT22;5256;48.728;9.140;2022-12-29T01:28:46;6.90;99.90
10419;DHT22;5256;48.728;9.140;2022-12-29T01:31:14;7.00;99.90
10419;DHT22;5256;48.728;9.140;2022-12-29T01:33:40;7.10;99.90
10419;DHT22;5256;48.728;9.140;2022-12-29T01:36:09;7.10;99.90
10419;DHT22;5256;48.728;9.140;2022-12-29T01:38:36;7.20;99.90
10419;DHT22;5256;48.728;9.140;2022-12-29T01:41:03;7.30;99.90
10419;DHT22;5256;48.728;9.140;2022-12-29T01:43:44;7.40;99.90
10419;DHT22;5256;48.728;9.140;2022-12-29T01:46:34;7.50;99.90
10419;DHT22;5256;48.728;9.140;2022-12-29T01:51:36;7.60;99.90
10419;DHT22;5256;48.728;9.140;2022-12-29T01:54:07;7.70;99.90
10419;DHT22;5256;48.728;9.140;2022-12-29T01:56:35;7.80;99.90
10419;DHT22;5256;48.728;9.140;2022-12-29T01:59:12;7.80;99.90
10419;DHT22;5256;48.728;9.140;2022-12-29T02:01:40;7.90;99.90
10419;DHT22;5256;48.728;9.140;2022-12-29T02:04:06;8.00;99.90
10419;DHT22;5256;48.728;9.140;2022-12-29T02:06:36;8.10;99.90
10419;DHT22;5256;48.728;9.140;2022-12-29T02:09:03;8.00;99.90
10419;DHT22;5256;48.728;9.140;2022-12-29T02:11:29;8.00;99.90
10419;DHT22;5256;48.728;9.140;2022-12-29T02:13:56;7.90;99.90
10419;DHT22;5256;48.728;9.140;2022-12-29T02:24:59;7.70;99.90
10419;DHT22;5256;48.728;9.140;2022-12-29T02:27:57;7.70;99.90
10419;DHT22;5256;48.728;9.140;2022-12-29T02:33:41;7.60;99.90
10419;DHT22;5256;48.728;9.140;2022-12-29T02:36:34;7.80;99.90
10419;DHT22;5256;48.728;9.140;2022-12-29T02:47:16;8.20;99.90
10419;DHT22;5256;48.728;9.140;2022-12-29T02:52:16;8.40;99.90
10419;DHT22;5256;48.728;9.140;2022-12-29T02:54:43;8.50;99.90
10419;DHT22;5256;48.728;9.140;2022-12-29T02:59:51;8.80;99.90
10419;DHT22;5256;48.728;9.140;2022-12-29T03:11:07;8.90;99.90
10419;DHT22;5256;48.728;9.140;2022-12-29T03:14:12;8.70;99.90
10419;DHT22;5256;48.728;9.140;2022-12-29T03:17:05;8.70;99.90
10419;DHT22;5256;48.728;9.140;2022-12-29T03:19:41;8.70;99.90
10419;DHT22;5256;48.728;9.140;2022-12-29T03:22:18;8.80;99.90
10419;DHT22;5256;48.728;9.140;2022-12-29T03:25:16;8.80;99.90
10419;DHT22;5256;48.728;9.140;2022-12-29T03:27:56;8.90;99.90
10419;DHT22;5256;48.728;9.140;2022-12-29T03:30:22;8.90;99.90
10419;DHT22;5256;48.728;9.140;2022-12-29T03:32:56;8.90;99.90
10419;DHT22;5256;48.728;9.140;2022-12-29T03:35:25;9.10;99.90
10419;DHT22;5256;48.728;9.140;2022-12-29T03:40:38;9.30;99.90
10419;DHT22;5256;48.728;9.140;2022-12-29T03:43:05;9.40;99.90
10419;DHT22;5256;48.728;9.140;2022-12-29T03:45:31;9.40;99.90
10419;DHT22;5256;48.728;9.140;2022-12-29T03:47:56;9.50;99.90
10419;DHT22;5256;48.728;9.140;2022-12-29T03:50:22;9.60;99.90
10419;DHT22;5256;48.728;9.140;2022-12-29T03:52:47;9.60;99.90
10419;DHT22;5256;48.728;9.140;2022-12-29T03:55:13;9.60;99.90
10419;DHT22;5256;48.728;9.140;2022-12-29T03:57:38;9.60;99.90
10419;DHT22;5256;48.728;9.140;2022-12-29T04:00:05;9.50;99.90
10419;DHT22;5256;48.728;9.140;2022-12-29T04:02:31;9.30;99.90
10419;DHT22;5256;48.728;9.140;2022-12-29T04:04:57;9.20;99.90
10419;DHT22;5256;48.728;9.140;2022-12-29T04:07:22;9.10;99.90
10419;DHT22;5256;48.728;9.140;2022-12-29T04:09:48;9.00;99.90
10419;DHT22;5256;48.728;9.140;2022-12-29T04:12:13;9.00;99.90
10419;DHT22;5256;48.728;9.140;2022-12-29T04:14:40;8.90;99.90
10419;DHT22;5256;48.728;9.140;2022-12-29T04:17:05;8.90;99.90
10419;DHT22;5256;48.728;9.140;2022-12-29T04:19:31;8.80;99.90
10419;DHT22;5256;48.728;9.140;2022-12-29T04:21:56;8.80;99.90
10419;DHT22;5256;48.728;9.140;2022-12-29T04:24:22;8.90;99.90
10419;DHT22;5256;48.728;9.140;2022-12-29T04:26:47;8.90;99.90
10419;DHT22;5256;48.728;9.140;2022-12-29T04:29:13;8.90;99.90
10419;DHT22;5256;48.728;9.140;2022-12-29T04:31:38;8.90;99.90
10419;DHT22;5256;48.728;9.140;2022-12-29T04:34:04;9.00;99.90
10419;DHT22;5256;48.728;9.140;2022-12-29T04:36:29;9.10;99.90
10419;DHT22;5256;48.728;9.140;2022-12-29T04:38:55;9.20;99.90
10419;DHT22;5256;48.728;9.140;2022-12-29T04:41:21;9.30;99.90
10419;DHT22;5256;48.728;9.140;2022-12-29T04:43:46;9.30;99.90
10419;DHT22;5256;48.728;9.140;2022-12-29T04:46:12;9.30;99.90
10419;DHT22;5256;48.728;9.140;2022-12-29T04:48:37;9.30;99.90
10419;DHT22;5256;48.728;9.140;2022-12-29T04:51:03;9.30;99.90
10419;DHT22;5256;48.728;9.140;2022-12-29T04:53:28;9.30;99.90
10419;DHT22;5256;48.728;9.140;2022-12-29T04:55:54;9.30;99.90
10419;DHT22;5256;48.728;9.140;2022-12-29T04:58:20;9.40;99.90
10419;DHT22;5256;48.728;9.140;2022-12-29T05:00:46;9.40;99.90
10419;DHT22;5256;48.728;9.140;2022-12-29T05:03:12;9.40;99.90
10419;DHT22;5256;48.728;9.140;2022-12-29T05:05:38;9.40;99.90
10419;DHT22;5256;48.728;9.140;2022-12-29T05:08:03;9.40;99.90
10419;DHT22;5256;48.728;9.140;2022-12-29T05:10:29;9.40;99.90
10419;DHT22;5256;48.728;9.140;2022-12-29T05:12:54;9.40;99.90
10419;DHT22;5256;48.728;9.140;2022-12-29T05:15:20;9.40;99.90
10419;DHT22;5256;48.728;9.140;2022-12-29T05:17:46;9.40;99.90
10419;DHT22;5256;48.728;9.140;2022-12-29T05:20:11;9.30;99.90
10419;DHT22;5256;48.728;9.140;2022-12-29T05:22:37;9.30;99.90
10419;DHT22;5256;48.728;9.140;2022-12-29T05:25:03;9.20;99.90
10419;DHT22;5256;48.728;9.140;2022-12-29T05:27:28;9.20;99.90
10419;DHT22;5256;48.728;9.140;2022-12-29T05:29:54;9.10;99.90
10419;DHT22;5256;48.728;9.140;2022-12-29T05:32:20;9.00;99.90
10419;DHT22;5256;48.728;9.140;2022-12-29T05:34:46;9.00;99.90
10419;DHT22;5256;48.728;9.140;2022-12-29T05:37:11;9.10;99.90
10419;DHT22;5256;48.728;9.140;2022-12-29T05:39:37;9.10;99.90
10419;DHT22;5256;48.728;9.140;2022-12-29T05:42:03;9.10;99.90
10419;DHT22;5256;48.728;9.140;2022-12-29T05:44:28;9.20;99.90
10419;DHT22;5256;48.728;9.140;2022-12-29T05:46:54;9.10;99.90
10419;DHT22;5256;48.728;9.140;2022-12-29T05:49:19;9.20;99.90
10419;DHT22;5256;48.728;9.140;2022-12-29T05:51:45;9.20;99.90
10419;DHT22;5256;48.728;9.140;2022-12-29T05:54:10;9.10;99.90
10419;DHT22;5256;48.728;9.140;2022-12-29T05:56:36;9.20;99.90
10419;DHT22;5256;48.728;9.140;2022-12-29T05:59:01;9.30;99.90
10419;DHT22;5256;48.728;9.140;2022-12-29T06:01:27;9.30;99.90
10419;DHT22;5256;48.728;9.140;2022-12-29T06:03:53;9.40;99.90
10419;DHT22;5256;48.728;9.140;2022-12-29T06:06:18;9.30;99.90
10419;DHT22;5256;48.728;9.140;2022-12-29T06:08:44;9.20;99.90
10419;DHT22;5256;48.728;9.140;2022-12-29T06:11:09;9.20;99.90
10419;DHT22;5256;48.728;9.140;2022-12-29T06:13:35;9.10;99.90
10419;DHT22;5256;48.728;9.140;2022-12-29T06:16:00;9.20;99.90
10419;DHT22;5256;48.728;9.140;2022-12-29T06:18:26;9.20;99.90
10419;DHT22;5256;48.728;9.140;2022-12-29T06:20:52;9.40;99.90
10419;DHT22;5256;48.728;9.140;2022-12-29T06:23:18;9.40;99.90
10419;DHT22;5256;48.728;9.140;2022-12-29T06:25:44;9.40;99.90
10419;DHT22;5256;48.728;9.140;2022-12-29T06:28:10;9.30;99.90
10419;DHT22;5256;48.728;9.140;2022-12-29T06:30:36;9.20;99.90
10419;DHT22;5256;48.728;9.140;2022-12-29T06:33:01;9.10;99.90
10419;DHT22;5256;48.728;9.140;2022-12-29T06:35:27;9.00;99.90
10419;DHT22;5256;48.728;9.140;2022-12-29T06:37:53;9.00;99.90
10419;DHT22;5256;48.728;9.140;2022-12-29T06:40:18;9.00;99.90
10419;DHT22;5256;48.728;9.140;2022-12-29T06:42:44;8.90;99.90
10419;DHT22;5256;48.728;9.140;2022-12-29T06:45:10;8.90;99.90
10419;DHT22;5256;48.728;9.140;2022-12-29T06:47:35;8.80;99.90
10419;DHT22;5256;48.728;9.140;2022-12-29T06:50:01;8.70;99.90
10419;DHT22;5256;48.728;9.140;2022-12-29T06:52:27;8.70;99.90
10419;DHT22;5256;48.728;9.140;2022-12-29T06:54:54;8.70;99.90
10419;DHT22;5256;48.728;9.140;2022-12-29T06:57:20;8.70;99.90
10419;DHT22;5256;48.728;9.140;2022-12-29T06:59:46;8.60;99.90
10419;DHT22;5256;48.728;9.140;2022-12-29T07:02:12;8.60;99.90
10419;DHT22;5256;48.728;9.140;2022-12-29T07:04:40;8.50;99.90
10419;DHT22;5256;48.728;9.140;2022-12-29T07:07:05;8.50;99.90
10419;DHT22;5256;48.728;9.140;2022-12-29T07:09:31;8.50;99.90
10419;DHT22;5256;48.728;9.140;2022-12-29T07:11:56;8.50;99.90
10419;DHT22;5256;48.728;9.140;2022-12-29T07:14:22;8.40;99.90
10419;DHT22;5256;48.728;9.140;2022-12-29T07:16:48;8.30;99.90
10419;DHT22;5256;48.728;9.140;2022-12-29T07:19:13;8.30;99.90
10419;DHT22;5256;48.728;9.140;2022-12-29T07:21:39;8.20;99.90
10419;DHT22;5256;48.728;9.140;2022-12-29T07:24:04;8.10;99.90
10419;DHT22;5256;48.728;9.140;2022-12-29T07:26:30;8.00;99.90
10419;DHT22;5256;48.728;9.140;2022-12-29T07:28:56;8.00;99.90
10419;DHT22;5256;48.728;9.140;2022-12-29T07:31:22;7.80;99.90
10419;DHT22;5256;48.728;9.140;2022-12-29T07:33:48;7.80;99.90
10419;DHT22;5256;48.728;9.140;2022-12-29T07:36:15;7.80;99.90
10419;DHT22;5256;48.728;9.140;2022-12-29T07:38:41;7.70;99.90
10419;DHT22;5256;48.728;9.140;2022-12-29T07:41:07;7.80;99.90
10419;DHT22;5256;48.728;9.140;2022-12-29T07:43:33;7.80;99.90
10419;DHT22;5256;48.728;9.140;2022-12-29T07:45:59;7.80;99.90
10419;DHT22;5256;48.728;9.140;2022-12-29T07:48:24;7.80;99.90
10419;DHT22;5256;48.728;9.140;2022-12-29T07:50:50;7.90;99.90
10419;DHT22;5256;48.728;9.140;2022-12-29T07:53:16;7.90;99.90
10419;DHT22;5256;48.728;9.140;2022-12-29T07:55:42;8.00;99.90
10419;DHT22;5256;48.728;9.140;2022-12-29T07:58:07;8.00;99.90
10419;DHT22;5256;48.728;9.140;2022-12-29T08:00:33;8.10;99.90
10419;DHT22;5256;48.728;9.140;2022-12-29T08:02:58;8.20;99.90
10419;DHT22;5256;48.728;9.140;2022-12-29T08:05:24;8.30;99.90
10419;DHT22;5256;48.728;9.140;2022-12-29T08:07:50;8.40;99.90
10419;DHT22;5256;48.728;9.140;2022-12-29T08:10:16;8.50;99.90
10419;DHT22;5256;48.728;9.140;2022-12-29T08:12:42;8.60;99.90
10419;DHT22;5256;48.728;9.140;2022-12-29T08:15:09;8.60;99.90
10419;DHT22;5256;48.728;9.140;2022-12-29T08:17:35;8.60;99.90
10419;DHT22;5256;48.728;9.140;2022-12-29T08:20:01;8.60;99.90
10419;DHT22;5256;48.728;9.140;2022-12-29T08:22:27;8.70;99.90
10419;DHT22;5256;48.728;9.140;2022-12-29T08:24:53;8.90;99.90
10419;DHT22;5256;48.728;9.140;2022-12-29T08:27:19;8.90;99.90
10419;DHT22;5256;48.728;9.140;2022-12-29T08:29:44;8.90;99.90
10419;DHT22;5256;48.728;9.140;2022-12-29T08:32:10;9.10;99.90
10419;DHT22;5256;48.728;9.140;2022-12-29T08:34:36;9.20;99.90
10419;DHT22;5256;48.728;9.140;2022-12-29T08:37:01;9.30;99.90
10419;DHT22;5256;48.728;9.140;2022-12-29T08:39:27;9.30;99.90
10419;DHT22;5256;48.728;9.140;2022-12-29T08:41:53;9.40;99.90
10419;DHT22;5256;48.728;9.140;2022-12-29T08:44:18;9.40;99.90
10419;DHT22;5256;48.728;9.140;2022-12-29T08:46:44;9.40;99.90
10419;DHT22;5256;48.728;9.140;2022-12-29T08:49:09;9.40;99.90
10419;DHT22;5256;48.728;9.140;2022-12-29T08:51:35;9.40;99.90
10419;DHT22;5256;48.728;9.140;2022-12-29T08:54:00;9.40;99.90
10419;DHT22;5256;48.728;9.140;2022-12-29T08:56:26;9.40;99.90
10419;DHT22;5256;48.728;9.140;2022-12-29T08:58:52;9.60;99.90
10419;DHT22;5256;48.728;9.140;2022-12-29T09:01:18;9.60;99.90
10419;DHT22;5256;48.728;9.140;2022-12-29T09:03:44;9.60;99.90
10419;DHT22;5256;48.728;9.140;2022-12-29T09:06:10;9.50;99.90
10419;DHT22;5256;48.728;9.140;2022-12-29T09:08:35;9.50;99.90
10419;DHT22;5256;48.728;9.140;2022-12-29T09:11:17;9.50;99.90
10419;DHT22;5256;48.728;9.140;2022-12-29T09:13:43;9.40;99.90
10419;DHT22;5256;48.728;9.140;2022-12-29T09:16:09;9.50;99.90
10419;DHT22;5256;48.728;9.140;2022-12-29T09:18:35;9.70;99.90
10419;DHT22;5256;48.728;9.140;2022-12-29T09:21:03;9.70;99.90
10419;DHT22;5256;48.728;9.140;2022-12-29T09:23:29;9.80;99.90
10419;DHT22;5256;48.728;9.140;2022-12-29T09:25:55;9.80;99.90
10419;DHT22;5256;48.728;9.140;2022-12-29T09:28:21;10.00;99.90
10419;DHT22;5256;48.728;9.140;2022-12-29T09:30:46;9.90;99.90
10419;DHT22;5256;48.728;9.140;2022-12-29T09:33:21;10.00;99.90
10419;DHT22;5256;48.728;9.140;2022-12-29T09:35:52;10.10;99.90
10419;DHT22;5256;48.728;9.140;2022-12-29T09:38:18;10.30;99.90
10419;DHT22;5256;48.728;9.140;2022-12-29T09:40:45;10.30;99.90
10419;DHT22;5256;48.728;9.140;2022-12-29T09:43:43;10.30;99.90
10419;DHT22;5256;48.728;9.140;2022-12-29T09:47:03;10.40;99.90
10419;DHT22;5256;48.728;9.140;2022-12-29T09:55:12;10.60;99.90
10419;DHT22;5256;48.728;9.140;2022-12-29T09:58:20;10.70;99.90
10419;DHT22;5256;48.728;9.140;2022-12-29T10:03:42;11.00;99.90
10419;DHT22;5256;48.728;9.140;2022-12-29T10:06:18;11.00;99.90
10419;DHT22;5256;48.728;9.140;2022-12-29T10:14:22;11.00;99.90
10419;DHT22;5256;48.728;9.140;2022-12-29T10:24:59;11.20;99.90
10419;DHT22;5256;48.728;9.140;2022-12-29T10:27:31;11.10;99.90
10419;DHT22;5256;48.728;9.140;2022-12-29T10:29:59;11.20;99.90
10419;DHT22;5256;48.728;9.140;2022-12-29T10:32:40;11.30;99.90
10419;DHT22;5256;48.728;9.140;2022-12-29T10:35:16;11.30;99.90
10419;DHT22;5256;48.728;9.140;2022-12-29T10:37:49;11.60;99.90
10419;DHT22;5256;48.728;9.140;2022-12-29T10:42:52;11.70;99.90
10419;DHT22;5256;48.728;9.140;2022-12-29T10:45:19;11.70;99.90
10419;DHT22;5256;48.728;9.140;2022-12-29T10:48:01;11.70;99.90
10419;DHT22;5256;48.728;9.140;2022-12-29T10:50:28;11.90;99.90
10419;DHT22;5256;48.728;9.140;2022-12-29T10:52:58;12.20;99.90
10419;DHT22;5256;48.728;9.140;2022-12-29T10:55:28;12.30;99.90
10419;DHT22;5256;48.728;9.140;2022-12-29T10:58:00;12.30;99.90
10419;DHT22;5256;48.728;9.140;2022-12-29T11:00:30;12.30;99.90
10419;DHT22;5256;48.728;9.140;2022-12-29T11:08:45;12.40;99.90
10419;DHT22;5256;48.728;9.140;2022-12-29T11:11:32;12.20;99.90
10419;DHT22;5256;48.728;9.140;2022-12-29T11:16:37;12.10;99.90
10419;DHT22;5256;48.728;9.140;2022-12-29T11:19:03;12.00;99.90
10419;DHT22;5256;48.728;9.140;2022-12-29T11:21:37;12.00;99.90
10419;DHT22;5256;48.728;9.140;2022-12-29T11:24:25;12.00;99.90
10419;DHT22;5256;48.728;9.140;2022-12-29T11:26:55;11.90;99.90
10419;DHT22;5256;48.728;9.140;2022-12-29T11:29:38;11.70;99.90
10419;DHT22;5256;48.728;9.140;2022-12-29T11:32:19;11.60;99.90
10419;DHT22;5256;48.728;9.140;2022-12-29T11:34:45;11.60;99.90
10419;DHT22;5256;48.728;9.140;2022-12-29T11:42:41;11.20;99.90
10419;DHT22;5256;48.728;9.140;2022-12-29T11:45:21;11.20;99.90
10419;DHT22;5256;48.728;9.140;2022-12-29T11:47:56;11.10;99.90
10419;DHT22;5256;48.728;9.140;2022-12-29T11:50:31;11.20;99.90
10419;DHT22;5256;48.728;9.140;2022-12-29T11:55:58;11.30;99.90
10419;DHT22;5256;48.728;9.140;2022-12-29T11:58:32;11.40;99.90
10419;DHT22;5256;48.728;9.140;2022-12-29T12:01:05;11.40;99.90
10419;DHT22;5256;48.728;9.140;2022-12-29T12:03:34;11.40;99.90
10419;DHT22;5256;48.728;9.140;2022-12-29T12:06:02;11.40;99.90
10419;DHT22;5256;48.728;9.140;2022-12-29T12:08:36;11.40;99.90
10419;DHT22;5256;48.728;9.140;2022-12-29T12:11:15;11.40;99.90
10419;DHT22;5256;48.728;9.140;2022-12-29T12:16:18;11.30;99.90
10419;DHT22;5256;48.728;9.140;2022-12-29T12:18:49;11.30;99.90
10419;DHT22;5256;48.728;9.140;2022-12-29T12:21:32;11.20;99.90
10419;DHT22;5256;48.728;9.140;2022-12-29T12:30:03;11.20;99.90
10419;DHT22;5256;48.728;9.140;2022-12-29T12:32:52;11.20;99.90
10419;DHT22;5256;48.728;9.140;2022-12-29T12:35:25;11.20;99.90
10419;DHT22;5256;48.728;9.140;2022-12-29T12:40:53;11.00;99.90
10419;DHT22;5256;48.728;9.140;2022-12-29T12:46:06;10.70;99.90
10419;DHT22;5256;48.728;9.140;2022-12-29T12:51:34;10.40;99.90
10419;DHT22;5256;48.728;9.140;2022-12-29T12:54:26;10.50;99.90
10419;DHT22;5256;48.728;9.140;2022-12-29T13:05:25;10.70;99.90
10419;DHT22;5256;48.728;9.140;2022-12-29T13:08:29;10.80;99.90
10419;DHT22;5256;48.728;9.140;2022-12-29T13:16:56;11.10;99.90
10419;DHT22;5256;48.728;9.140;2022-12-29T13:20:17;11.10;99.90
10419;DHT22;5256;48.728;9.140;2022-12-29T13:22:33;11.10;99.90
10419;DHT22;5256;48.728;9.140;2022-12-29T13:25:32;11.20;99.90
10419;DHT22;5256;48.728;9.140;2022-12-29T13:30:43;11.30;99.90
10419;DHT22;5256;48.728;9.140;2022-12-29T13:36:07;11.10;99.90
10419;DHT22;5256;48.728;9.140;2022-12-29T13:39:37;11.10;99.90
10419;DHT22;5256;48.728;9.140;2022-12-29T13:41:48;11.10;99.90
10419;DHT22;5256;48.728;9.140;2022-12-29T13:44:41;11.10;99.90
10419;DHT22;5256;48.728;9.140;2022-12-29T13:47:21;11.10;99.90
10419;DHT22;5256;48.728;9.140;2022-12-29T13:49:50;11.00;99.90
10419;DHT22;5256;48.728;9.140;2022-12-29T13:52:28;11.00;99.90
10419;DHT22;5256;48.728;9.140;2022-12-29T13:55:07;10.90;99.90
10419;DHT22;5256;48.728;9.140;2022-12-29T14:00:22;10.90;99.90
10419;DHT22;5256;48.728;9.140;2022-12-29T14:03:19;10.90;99.90
10419;DHT22;5256;48.728;9.140;2022-12-29T14:08:50;10.90;99.90
10419;DHT22;5256;48.728;9.140;2022-12-29T14:11:21;11.10;99.90
10419;DHT22;5256;48.728;9.140;2022-12-29T14:13:47;11.20;99.90
10419;DHT22;5256;48.728;9.140;2022-12-29T14:16:30;11.10;99.90
10419;DHT22;5256;48.728;9.140;2022-12-29T14:19:05;11.10;99.90
10419;DHT22;5256;48.728;9.140;2022-12-29T14:21:31;11.00;99.90
10419;DHT22;5256;48.728;9.140;2022-12-29T14:24:27;10.90;99.90
10419;DHT22;5256;48.728;9.140;2022-12-29T14:26:53;10.80;99.90
10419;DHT22;5256;48.728;9.140;2022-12-29T14:31:53;10.70;99.90
10419;DHT22;5256;48.728;9.140;2022-12-29T14:36:56;10.80;99.90
10419;DHT22;5256;48.728;9.140;2022-12-29T14:47:31;10.60;99.90
10419;DHT22;5256;48.728;9.140;2022-12-29T14:50:15;10.50;99.90
10419;DHT22;5256;48.728;9.140;2022-12-29T14:57:46;10.50;99.90
10419;DHT22;5256;48.728;9.140;2022-12-29T15:02:46;10.30;99.90
10419;DHT22;5256;48.728;9.140;2022-12-29T15:06:07;10.30;99.90
10419;DHT22;5256;48.728;9.140;2022-12-29T15:08:44;10.30;99.90
10419;DHT22;5256;48.728;9.140;2022-12-29T15:11:31;10.20;99.90
10419;DHT22;5256;48.728;9.140;2022-12-29T15:16:53;10.20;99.90
10419;DHT22;5256;48.728;9.140;2022-12-29T15:19:22;10.10;99.90
10419;DHT22;5256;48.728;9.140;2022-12-29T15:21:48;10.10;99.90
10419;DHT22;5256;48.728;9.140;2022-12-29T15:24:14;10.10;99.90
10419;DHT22;5256;48.728;9.140;2022-12-29T15:26:45;10.10;99.90
10419;DHT22;5256;48.728;9.140;2022-12-29T15:29:37;10.10;99.90
10419;DHT22;5256;48.728;9.140;2022-12-29T15:32:24;10.20;99.90
10419;DHT22;5256;48.728;9.140;2022-12-29T15:34:55;10.20;99.90
10419;DHT22;5256;48.728;9.140;2022-12-29T15:39:49;10.20;99.90
10419;DHT22;5256;48.728;9.140;2022-12-29T15:44:46;10.20;99.90
10419;DHT22;5256;48.728;9.140;2022-12-29T15:47:22;10.10;99.90
10419;DHT22;5256;48.728;9.140;2022-12-29T15:50:03;10.20;99.90
10419;DHT22;5256;48.728;9.140;2022-12-29T15:52:31;10.30;99.90
10419;DHT22;5256;48.728;9.140;2022-12-29T15:54:58;10.30;99.90
10419;DHT22;5256;48.728;9.140;2022-12-29T15:57:27;10.30;99.90
10419;DHT22;5256;48.728;9.140;2022-12-29T15:59:53;10.40;99.90
10419;DHT22;5256;48.728;9.140;2022-12-29T16:02:21;10.50;99.90
10419;DHT22;5256;48.728;9.140;2022-12-29T16:04:48;10.50;99.90
10419;DHT22;5256;48.728;9.140;2022-12-29T16:07:31;10.50;99.90
10419;DHT22;5256;48.728;9.140;2022-12-29T16:09:59;10.40;99.90
10419;DHT22;5256;48.728;9.140;2022-12-29T16:12:32;10.10;99.90
10419;DHT22;5256;48.728;9.140;2022-12-29T16:15:00;9.70;99.90
10419;DHT22;5256;48.728;9.140;2022-12-29T16:17:30;9.50;99.90
10419;DHT22;5256;48.728;9.140;2022-12-29T16:20:02;9.30;99.90
10419;DHT22;5256;48.728;9.140;2022-12-29T16:25:04;8.90;99.90
10419;DHT22;5256;48.728;9.140;2022-12-29T16:27:32;8.80;99.90
10419;DHT22;5256;48.728;9.140;2022-12-29T16:30:06;8.60;99.90
10419;DHT22;5256;48.728;9.140;2022-12-29T16:32:33;8.50;99.90
10419;DHT22;5256;48.728;9.140;2022-12-29T16:35:20;8.50;99.90
10419;DHT22;5256;48.728;9.140;2022-12-29T16:37:47;8.40;99.90
10419;DHT22;5256;48.728;9.140;2022-12-29T16:42:49;8.40;99.90
10419;DHT22;5256;48.728;9.140;2022-12-29T16:50:34;8.30;99.90
10419;DHT22;5256;48.728;9.140;2022-12-29T16:53:01;8.20;99.90
10419;DHT22;5256;48.728;9.140;2022-12-29T16:55:28;8.20;99.90
10419;DHT22;5256;48.728;9.140;2022-12-29T16:57:55;8.30;99.90
10419;DHT22;5256;48.728;9.140;2022-12-29T17:00:26;8.30;99.90
10419;DHT22;5256;48.728;9.140;2022-12-29T17:02:56;8.30;99.90
10419;DHT22;5256;48.728;9.140;2022-12-29T17:05:22;8.30;99.90
10419;DHT22;5256;48.728;9.140;2022-12-29T17:07:48;8.30;99.90
10419;DHT22;5256;48.728;9.140;2022-12-29T17:10:13;8.30;99.90
10419;DHT22;5256;48.728;9.140;2022-12-29T17:12:42;8.10;99.90
10419;DHT22;5256;48.728;9.140;2022-12-29T17:15:24;8.00;99.90
10419;DHT22;5256;48.728;9.140;2022-12-29T17:17:52;7.90;99.90
10419;DHT22;5256;48.728;9.140;2022-12-29T17:20:27;7.80;99.90
10419;DHT22;5256;48.728;9.140;2022-12-29T17:22:54;7.70;99.90
10419;DHT22;5256;48.728;9.140;2022-12-29T17:25:27;7.70;99.90
10419;DHT22;5256;48.728;9.140;2022-12-29T17:27:59;7.80;99.90
10419;DHT22;5256;48.728;9.140;2022-12-29T17:30:27;7.70;99.90
10419;DHT22;5256;48.728;9.140;2022-12-29T17:32:59;7.50;99.90
10419;DHT22;5256;48.728;9.140;2022-12-29T17:35:25;7.50;99.90
10419;DHT22;5256;48.728;9.140;2022-12-29T17:37:51;7.40;99.90
10419;DHT22;5256;48.728;9.140;2022-12-29T17:40:19;7.50;99.90
10419;DHT22;5256;48.728;9.140;2022-12-29T17:42:51;7.50;99.90
10419;DHT22;5256;48.728;9.140;2022-12-29T17:45:20;7.50;99.90
10419;DHT22;5256;48.728;9.140;2022-12-29T17:47:46;7.50;99.90
10419;DHT22;5256;48.728;9.140;2022-12-29T17:50:14;7.40;99.90
10419;DHT22;5256;48.728;9.140;2022-12-29T17:52:41;7.40;99.90
10419;DHT22;5256;48.728;9.140;2022-12-29T17:55:15;7.30;99.90
10419;DHT22;5256;48.728;9.140;2022-12-29T17:57:41;7.30;99.90
10419;DHT22;5256;48.728;9.140;2022-12-29T18:00:22;7.20;99.90
10419;DHT22;5256;48.728;9.140;2022-12-29T18:02:48;7.20;99.90
10419;DHT22;5256;48.728;9.140;2022-12-29T18:05:21;7.20;99.90
10419;DHT22;5256;48.728;9.140;2022-12-29T18:07:50;7.20;99.90
10419;DHT22;5256;48.728;9.140;2022-12-29T18:10:15;7.40;99.90
10419;DHT22;5256;48.728;9.140;2022-12-29T18:12:43;7.50;99.90
10419;DHT22;5256;48.728;9.140;2022-12-29T18:15:29;7.60;99.90
10419;DHT22;5256;48.728;9.140;2022-12-29T18:18:08;7.70;99.90
10419;DHT22;5256;48.728;9.140;2022-12-29T18:20:35;7.60;99.90
10419;DHT22;5256;48.728;9.140;2022-12-29T18:23:01;7.70;99.90
10419;DHT22;5256;48.728;9.140;2022-12-29T18:25:43;7.80;99.90
10419;DHT22;5256;48.728;9.140;2022-12-29T18:28:11;7.80;99.90
10419;DHT22;5256;48.728;9.140;2022-12-29T18:30:37;7.80;99.90
10419;DHT22;5256;48.728;9.140;2022-12-29T18:33:03;7.80;99.90
10419;DHT22;5256;48.728;9.140;2022-12-29T18:35:41;7.80;99.90
10419;DHT22;5256;48.728;9.140;2022-12-29T18:38:07;7.90;99.90
10419;DHT22;5256;48.728;9.140;2022-12-29T18:40:33;7.80;99.90
10419;DHT22;5256;48.728;9.140;2022-12-29T18:42:59;7.80;99.90
10419;DHT22;5256;48.728;9.140;2022-12-29T18:45:25;7.70;99.90
10419;DHT22;5256;48.728;9.140;2022-12-29T18:47:51;7.70;99.90
10419;DHT22;5256;48.728;9.140;2022-12-29T18:50:17;7.70;99.90
10419;DHT22;5256;48.728;9.140;2022-12-29T18:52:43;7.70;99.90
10419;DHT22;5256;48.728;9.140;2022-12-29T18:55:17;7.70;99.90
10419;DHT22;5256;48.728;9.140;2022-12-29T18:57:43;7.70;99.90
10419;DHT22;5256;48.728;9.140;2022-12-29T19:00:10;7.60;99.90
10419;DHT22;5256;48.728;9.140;2022-12-29T19:02:37;7.60;99.90
10419;DHT22;5256;48.728;9.140;2022-12-29T19:05:03;7.60;99.90